CYPD

Details ICAO CYPD
Name PORT HAWKESBURY
Region Canada
Timezone America/Halifax (UTC-3.0)
Plans Departing 3
Arriving 4
Stats Elevation 377 ft / 115 m (AMSL)
Location 45.656509° -61.368368°
Runways 1
Magnetic Variation 17.821° W
Sunrise 2018-05-26 08:25:09 UTC / 2018-05-26 05:25:09 Local
Sunset 2018-05-26 23:42:48 UTC / 2018-05-26 20:42:48 Local
Advertisement - Login to hide

Runways

ID Width Length Bearing (true) Bearing (mag) Surface Threshold Offset Overrun Length
11 150 ft / 46 m 4,988 ft / 1,521 m 90.19° 108.01° Asphalt 0 ft / 0 m 0 ft / 0 m
29 150 ft / 46 m 4,988 ft / 1,521 m 270.20° 288.02° Asphalt 0 ft / 0 m 0 ft / 0 m

Map

Weather


0- 5 10 15 20 25 30 35+ Temperature / ° C

Clouds and Precipitation
Forecast for 2018-05-26 18:00 UTC. Updated an hour ago

Ground ~20,000 ft ~40,000 ft Winds

METAR

CYPD 261800Z AUTO 30005KT 1/2SM -RA FG VV003 09/09 A2967 RMK SLP052

TAF

Not found

Frequencies

Unicom 122.80 MHz CTAF/UNICOM
Warning: Do not use this data for real-world aviation or navigation. No guarantee of current accuracy is given.